Atoka, New Mexico
Current Conditions -  °F | °C
As of 1:15 PM on Sunday 21 Dec 2014 (Local Time) from KATS Reporting Station
Clear Clear  
Wind Chill: 68°   Ceiling: Unl
Heat Index: 68°   Visibility: 10mi
Dew Point: 28°   Wind: 16mph
Humidity: 23%   Direction: 250°WSW
Pressure: 29.81"   Gusts: NA
Location:  32.7449°N, 104.256°W
Report Text: KATS 212015Z AUTO 25014KT 10SM CLR 20/M02 A2981 RMK AO2
Loading
Personal Weather Stations






























Interactive Weather Map New forecast layout! Learn more

10-Day Weather Forecast

Advertisements
Track Severe Weather on mobile